createdAt,value
2019-03-16T00:01:25.674Z,98424.15
2019-03-16T00:03:55.104Z,98416.23
2019-03-16T00:06:24.623Z,98418.88
2019-03-16T00:08:53.807Z,98421.14
2019-03-16T00:11:23.264Z,98428.37
2019-03-16T00:13:52.848Z,98415.13
2019-03-16T00:16:23.622Z,98423.87
2019-03-16T00:18:53.046Z,98418.30
2019-03-16T00:21:22.223Z,98416.69
2019-03-16T00:23:51.405Z,98420.91
2019-03-16T00:26:21.353Z,98418.77
2019-03-16T00:28:50.839Z,98419.03
2019-03-16T00:31:20.610Z,98430.83
2019-03-16T00:33:50.081Z,98431.95
2019-03-16T00:36:20.529Z,98428.42
2019-03-16T00:38:50.245Z,98422.48
2019-03-16T00:41:20.210Z,98417.03
2019-03-16T00:43:49.942Z,98424.63
2019-03-16T00:46:19.442Z,98420.41
2019-03-16T00:48:48.931Z,98421.35
2019-03-16T00:51:18.441Z,98427.28
2019-03-16T00:53:48.208Z,98422.74
2019-03-16T00:56:17.649Z,98432.45
2019-03-16T00:58:49.347Z,98430.11
2019-03-16T01:01:19.311Z,98430.58
2019-03-16T01:03:49.173Z,98437.49
2019-03-16T01:06:18.608Z,98435.54
2019-03-16T01:08:48.352Z,98435.06
2019-03-16T01:11:18.082Z,98448.45
2019-03-16T01:13:47.526Z,98455.16
2019-03-16T01:16:18.822Z,98455.63
2019-03-16T01:18:49.126Z,98465.12
2019-03-16T01:21:19.744Z,98468.60
2019-03-16T01:23:51.046Z,98459.38
2019-03-16T01:26:21.431Z,98473.61
2019-03-16T01:28:50.822Z,98476.88
2019-03-16T01:31:20.278Z,98482.36
2019-03-16T01:33:49.460Z,98478.52
2019-03-16T01:36:20.395Z,98480.58
2019-03-16T01:38:51.342Z,98473.05
2019-03-16T01:41:20.540Z,98464.87
2019-03-16T01:43:50.493Z,98465.61
2019-03-16T01:46:20.016Z,98460.44
2019-03-16T01:48:50.230Z,98473.98
2019-03-16T01:51:21.442Z,98471.45
2019-03-16T01:53:51.937Z,98472.30
2019-03-16T01:56:21.141Z,98473.35
2019-03-16T01:58:50.293Z,98473.05
2019-03-16T02:01:19.469Z,98470.52
2019-03-16T02:03:49.687Z,98472.98
2019-03-16T02:06:21.074Z,98470.35
2019-03-16T02:08:51.036Z,98472.51
2019-03-16T02:11:20.498Z,98472.98
2019-03-16T02:13:51.486Z,98473.16
2019-03-16T02:16:23.158Z,98476.84
2019-03-16T02:18:53.310Z,98475.73
2019-03-16T02:21:23.575Z,98487.12
2019-03-16T02:23:55.279Z,98490.77
2019-03-16T02:26:24.459Z,98491.17
2019-03-16T02:28:56.398Z,98489.55
2019-03-16T02:31:26.146Z,98497.29
2019-03-16T02:33:56.141Z,98494.34
2019-03-16T02:36:25.589Z,98495.12
2019-03-16T02:38:55.050Z,98489.76
2019-03-16T02:41:24.868Z,98493.91
2019-03-16T02:43:54.356Z,98492.19
2019-03-16T02:46:23.545Z,98499.08
2019-03-16T02:48:52.726Z,98495.50
2019-03-16T02:51:22.221Z,98502.56
2019-03-16T02:53:52.694Z,98500.97
2019-03-16T02:56:22.408Z,98507.09
2019-03-16T02:58:51.901Z,98506.14
2019-03-16T03:01:22.108Z,98513.29
2019-03-16T03:03:52.067Z,98515.08
2019-03-16T03:06:22.810Z,98513.11
2019-03-16T03:08:51.985Z,98514.80
2019-03-16T03:11:21.801Z,98515.45
2019-03-16T03:13:51.329Z,98516.10
2019-03-16T03:16:21.588Z,98505.39
2019-03-16T03:18:50.785Z,98506.91
2019-03-16T03:21:20.014Z,98507.55
2019-03-16T03:23:50.001Z,98500.48
2019-03-16T03:26:20.080Z,98518.28
2019-03-16T03:28:49.577Z,98516.97
2019-03-16T03:31:19.512Z,98522.72
2019-03-16T03:34:00.267Z,98525.16
2019-03-16T03:36:20.204Z,98525.99
2019-03-16T03:38:49.687Z,98529.30
2019-03-16T03:41:19.975Z,98522.81
2019-03-16T03:43:49.254Z,98519.12
2019-03-16T03:46:21.545Z,98518.56
2019-03-16T03:48:51.298Z,98517.92
2019-03-16T03:51:21.627Z,98510.02
2019-03-16T03:53:51.117Z,98514.22
2019-03-16T03:56:20.330Z,98510.38
2019-03-16T03:58:49.494Z,98514.80
2019-03-16T04:01:18.979Z,98523.34
2019-03-16T04:03:50.710Z,98522.12
2019-03-16T04:06:19.873Z,98533.40
2019-03-16T04:08:49.327Z,98536.52
2019-03-16T04:11:19.487Z,98546.13
2019-03-16T04:13:48.946Z,98537.73
2019-03-16T04:16:18.930Z,98540.39
2019-03-16T04:18:52.113Z,98551.77
2019-03-16T04:21:23.494Z,98560.05
2019-03-16T04:23:52.734Z,98564.56
2019-03-16T04:26:22.689Z,98562.05
2019-03-16T04:28:53.052Z,98559.98
2019-03-16T04:31:22.214Z,98558.55
2019-03-16T04:33:52.479Z,98542.95
2019-03-16T04:36:22.719Z,98541.91
2019-03-16T04:38:53.408Z,98534.67
2019-03-16T04:41:22.582Z,98540.11
2019-03-16T04:43:52.858Z,98546.33
2019-03-16T04:46:22.340Z,98553.12
2019-03-16T04:48:51.593Z,98557.23
2019-03-16T04:51:21.112Z,98554.41
2019-03-16T04:53:51.366Z,98564.45
2019-03-16T04:56:21.218Z,98565.86
2019-03-16T04:58:51.725Z,98570.25
2019-03-16T05:01:21.572Z,98579.11
2019-03-16T05:03:50.849Z,98576.30
2019-03-16T05:06:20.734Z,98573.94
2019-03-16T05:08:50.546Z,98577.80
2019-03-16T05:11:20.587Z,98577.18
2019-03-16T05:13:51.420Z,98579.28
2019-03-16T05:16:22.807Z,98585.39
2019-03-16T05:18:51.965Z,98585.08
2019-03-16T05:21:22.708Z,98594.30
2019-03-16T05:23:53.708Z,98594.58
2019-03-16T05:26:23.470Z,98596.86
2019-03-16T05:28:54.187Z,98592.75
2019-03-16T05:31:23.661Z,98599.80
2019-03-16T05:33:52.838Z,98595.29
2019-03-16T05:36:22.021Z,98597.16
2019-03-16T05:38:52.007Z,98592.88
2019-03-16T05:41:21.471Z,98593.79
2019-03-16T05:43:50.645Z,98595.42
2019-03-16T05:46:20.436Z,98597.77
2019-03-16T05:48:49.624Z,98600.74
2019-03-16T05:51:19.587Z,98602.44
2019-03-16T05:53:48.780Z,98604.73
2019-03-16T05:56:17.953Z,98603.34
2019-03-16T05:58:47.904Z,98603.34
2019-03-16T06:01:17.865Z,98613.59
2019-03-16T06:03:47.830Z,98610.02
2019-03-16T06:06:17.851Z,98609.33
2019-03-16T06:08:47.419Z,98606.77
2019-03-16T06:11:16.726Z,98603.97
2019-03-16T06:13:47.760Z,98604.91
2019-03-16T06:16:17.205Z,98598.43
2019-03-16T06:18:50.866Z,98595.05
2019-03-16T06:21:20.313Z,98598.58
2019-03-16T06:23:49.970Z,98598.48
2019-03-16T06:26:19.304Z,98599.23
2019-03-16T06:28:48.570Z,98604.04
2019-03-16T06:31:18.727Z,98607.52
2019-03-16T06:33:49.269Z,98613.49
2019-03-16T06:36:18.794Z,98602.12
2019-03-16T06:38:48.214Z,98607.95
2019-03-16T06:41:17.434Z,98602.59
2019-03-16T06:43:52.196Z,98605.34
2019-03-16T06:46:21.405Z,98603.44
2019-03-16T06:48:50.720Z,98607.09
2019-03-16T06:51:20.186Z,98607.34
2019-03-16T06:53:49.375Z,98613.63
2019-03-16T06:56:19.077Z,98612.46
2019-03-16T06:58:58.324Z,98605.83
2019-03-16T07:01:27.456Z,98600.18
2019-03-16T07:03:58.229Z,98600.84
2019-03-16T07:06:28.767Z,98604.41
2019-03-16T07:08:58.554Z,98604.45
2019-03-16T07:11:28.974Z,98612.34
2019-03-16T07:13:58.708Z,98610.42
2019-03-16T07:16:27.913Z,98614.00
2019-03-16T07:19:00.119Z,98615.88
2019-03-16T07:21:29.861Z,98615.29
2019-03-16T07:23:59.529Z,98614.66
2019-03-16T07:26:29.057Z,98609.04
2019-03-16T07:28:58.553Z,98608.62
2019-03-16T07:31:29.728Z,98611.61
2019-03-16T07:33:58.895Z,98611.48
2019-03-16T07:36:28.065Z,98610.84
2019-03-16T07:38:57.708Z,98611.23
2019-03-16T07:41:29.989Z,98615.30
2019-03-16T07:44:00.633Z,98612.28
2019-03-16T07:46:29.822Z,98604.20
2019-03-16T07:48:59.186Z,98610.61
2019-03-16T07:51:28.608Z,98603.37
2019-03-16T07:53:58.011Z,98604.02
2019-03-16T07:56:27.222Z,98603.55
2019-03-16T07:58:56.391Z,98605.42
2019-03-16T08:01:26.335Z,98606.77
2019-03-16T08:03:56.664Z,98606.08
2019-03-16T08:06:27.392Z,98602.14
2019-03-16T08:08:58.000Z,98608.53
2019-03-16T08:11:28.057Z,98606.10
2019-03-16T08:13:58.617Z,98608.06
2019-03-16T08:16:29.389Z,98611.38
2019-03-16T08:19:01.174Z,98611.93
2019-03-16T08:21:30.740Z,98608.92
2019-03-16T08:24:00.715Z,98605.34
2019-03-16T08:26:30.257Z,98606.56
2019-03-16T08:28:59.556Z,98601.45
2019-03-16T08:31:29.082Z,98591.37
2019-03-16T08:33:58.307Z,98601.98
2019-03-16T08:36:27.508Z,98599.29
2019-03-16T08:38:56.974Z,98598.30
2019-03-16T08:41:26.405Z,98594.81
2019-03-16T08:43:55.963Z,98592.20
2019-03-16T08:46:25.193Z,98600.59
2019-03-16T08:48:54.683Z,98599.53
2019-03-16T08:51:24.065Z,98604.59
2019-03-16T08:53:54.519Z,98598.22
2019-03-16T08:56:23.799Z,98606.28
2019-03-16T08:58:53.628Z,98614.66
2019-03-16T09:01:23.460Z,98608.92
2019-03-16T09:03:55.030Z,98616.45
2019-03-16T09:06:25.478Z,98612.61
2019-03-16T09:08:54.647Z,98616.91
2019-03-16T09:11:33.797Z,98619.67
2019-03-16T09:14:03.574Z,98625.44
2019-03-16T09:16:34.107Z,98627.13
2019-03-16T09:19:04.032Z,98626.72
2019-03-16T09:21:38.944Z,98628.08
2019-03-16T09:24:10.273Z,98635.93
2019-03-16T09:26:40.193Z,98638.09
2019-03-16T09:29:14.850Z,98639.20
2019-03-16T09:31:44.646Z,98632.91
2019-03-16T09:34:13.937Z,98636.28
2019-03-16T09:36:44.471Z,98630.47
2019-03-16T09:39:14.516Z,98621.33
2019-03-16T09:41:43.968Z,98609.31
2019-03-16T09:44:13.595Z,98631.75
2019-03-16T09:46:43.331Z,98625.98
2019-03-16T09:49:14.832Z,98620.58
2019-03-16T09:51:44.064Z,98614.83
2019-03-16T09:54:15.164Z,98622.83
2019-03-16T09:56:44.874Z,98610.98
2019-03-16T09:59:34.213Z,98606.05
2019-03-16T10:02:03.668Z,98584.59
2019-03-16T10:04:35.233Z,98592.47
2019-03-16T10:07:04.434Z,98584.98
2019-03-16T10:09:34.153Z,98572.91
2019-03-16T10:12:03.334Z,98592.38
2019-03-16T10:14:33.867Z,98573.13
2019-03-16T10:17:03.045Z,98581.12
2019-03-16T10:19:32.233Z,98571.29
2019-03-16T10:22:01.507Z,98566.59
2019-03-16T10:24:30.973Z,98564.14
2019-03-16T10:27:00.432Z,98555.35
2019-03-16T10:29:30.911Z,98564.58
2019-03-16T10:32:05.975Z,98571.55
2019-03-16T10:34:37.012Z,98563.41
2019-03-16T10:37:07.007Z,98570.43
2019-03-16T10:39:36.379Z,98559.30
2019-03-16T10:42:05.548Z,98558.34
2019-03-16T10:44:34.838Z,98558.69
2019-03-16T10:47:04.031Z,98570.36
2019-03-16T10:49:33.833Z,98570.72
2019-03-16T10:52:04.420Z,98568.93
2019-03-16T10:54:34.038Z,98585.30
2019-03-16T10:57:04.438Z,98577.04
2019-03-16T10:59:35.009Z,98558.87
2019-03-16T11:02:06.267Z,98556.95
2019-03-16T11:04:35.556Z,98555.73
2019-03-16T11:07:05.549Z,98551.53
2019-03-16T11:09:35.035Z,98542.67
2019-03-16T11:12:07.071Z,98542.80
2019-03-16T11:14:41.177Z,98549.34
2019-03-16T11:17:11.174Z,98560.05
2019-03-16T11:19:42.146Z,98549.62
2019-03-16T11:22:11.679Z,98542.00
2019-03-16T11:24:42.719Z,98548.57
2019-03-16T11:27:13.012Z,98540.27
2019-03-16T11:29:46.598Z,98539.13
2019-03-16T11:32:19.169Z,98540.16
2019-03-16T11:34:49.294Z,98538.91
2019-03-16T11:37:19.288Z,98548.54
2019-03-16T11:39:48.607Z,98537.47
2019-03-16T11:42:17.762Z,98534.09
2019-03-16T11:44:47.241Z,98538.20
2019-03-16T11:47:16.741Z,98533.19
2019-03-16T11:49:47.455Z,98524.97
2019-03-16T11:52:16.997Z,98527.25
2019-03-16T11:54:46.432Z,98516.09
2019-03-16T11:57:21.276Z,98530.17
2019-03-16T11:59:51.620Z,98502.59
2019-03-16T12:02:21.106Z,98504.23
2019-03-16T12:04:50.621Z,98506.09
2019-03-16T12:07:21.140Z,98499.89
2019-03-16T12:09:50.689Z,98505.06
2019-03-16T12:12:19.920Z,98501.13
2019-03-16T12:14:49.715Z,98489.78
2019-03-16T12:17:19.211Z,98480.90
2019-03-16T12:19:50.177Z,98489.54
2019-03-16T12:22:20.705Z,98478.55
2019-03-16T12:24:52.853Z,98461.22
2019-03-16T12:27:22.742Z,98489.18
2019-03-16T12:29:52.538Z,98485.05
2019-03-16T12:32:22.347Z,98452.81
2019-03-16T12:34:55.297Z,98460.87
2019-03-16T12:37:24.798Z,98463.91
2019-03-16T12:39:54.410Z,98455.73
2019-03-16T12:42:24.773Z,98453.56
2019-03-16T12:44:54.877Z,98446.94
2019-03-16T12:47:31.349Z,98442.38
2019-03-16T12:50:04.159Z,98437.81
2019-03-16T12:52:33.734Z,98454.45
2019-03-16T12:55:04.137Z,98440.45
2019-03-16T12:57:33.376Z,98454.89
2019-03-16T13:00:03.533Z,98448.52
2019-03-16T13:02:36.354Z,98450.55
2019-03-16T13:05:06.521Z,98451.59
2019-03-16T13:07:39.083Z,98446.02
2019-03-16T13:10:11.101Z,98450.36
2019-03-16T13:12:43.145Z,98477.03
2019-03-16T13:15:12.429Z,98435.61
2019-03-16T13:17:41.648Z,98453.66
2019-03-16T13:20:12.448Z,98444.30
2019-03-16T13:22:41.730Z,98435.52
2019-03-16T13:25:11.772Z,98418.80
2019-03-16T13:27:41.679Z,98428.06
2019-03-16T13:30:14.150Z,98429.05
2019-03-16T13:32:43.982Z,98429.98
2019-03-16T13:35:16.118Z,98419.27
2019-03-16T13:37:46.504Z,98417.63
2019-03-16T13:40:16.128Z,98420.51
2019-03-16T13:42:45.703Z,98411.84
2019-03-16T13:45:15.017Z,98408.95
2019-03-16T13:47:44.176Z,98406.78
2019-03-16T13:50:13.445Z,98402.94
2019-03-16T13:52:42.826Z,98393.91
2019-03-16T13:55:12.481Z,98390.42
2019-03-16T13:57:46.987Z,98404.14
2019-03-16T14:00:28.208Z,98413.53
2019-03-16T14:02:58.010Z,98402.58
2019-03-16T14:05:36.220Z,98401.34
2019-03-16T14:08:06.562Z,98387.14
2019-03-16T14:10:37.371Z,98392.56
2019-03-16T14:13:07.830Z,98393.50
2019-03-16T14:15:38.280Z,98393.37
2019-03-16T14:18:07.944Z,98382.55
2019-03-16T14:20:38.293Z,98405.89
2019-03-16T14:23:07.528Z,98384.71
2019-03-16T14:25:37.221Z,98377.02
2019-03-16T14:28:06.669Z,98387.95
2019-03-16T14:30:41.272Z,98387.33
2019-03-16T14:33:07.973Z,98387.81
2019-03-16T14:35:37.446Z,98392.74
2019-03-16T14:38:08.976Z,98394.96
2019-03-16T14:40:38.176Z,98404.82
2019-03-16T14:43:07.353Z,98411.19
2019-03-16T14:45:36.820Z,98413.48
2019-03-16T14:48:05.994Z,98409.99
2019-03-16T14:50:35.227Z,98405.96
2019-03-16T14:53:04.746Z,98398.76
2019-03-16T14:55:33.944Z,98402.41
2019-03-16T14:58:04.050Z,98365.88
2019-03-16T15:00:38.784Z,98371.61
2019-03-16T15:03:08.913Z,98381.63
2019-03-16T15:05:38.547Z,98381.98
2019-03-16T15:08:12.116Z,98381.43
2019-03-16T15:10:41.662Z,98384.52
2019-03-16T15:13:10.845Z,98391.97
2019-03-16T15:15:40.018Z,98372.63
2019-03-16T15:18:10.130Z,98373.39
2019-03-16T15:20:39.331Z,98375.19
2019-03-16T15:23:08.784Z,98363.66
2019-03-16T15:25:37.972Z,98377.36
2019-03-16T15:28:07.386Z,98382.04
2019-03-16T15:30:50.199Z,98368.34
2019-03-16T15:33:09.759Z,98358.59
2019-03-16T15:35:39.740Z,98352.23
2019-03-16T15:38:08.921Z,98359.92
2019-03-16T15:40:38.440Z,98363.66
2019-03-16T15:43:12.090Z,98349.95
2019-03-16T15:45:42.120Z,98357.44
2019-03-16T15:48:12.835Z,98355.52
2019-03-16T15:50:42.291Z,98346.14
2019-03-16T15:53:11.766Z,98343.02
2019-03-16T15:55:41.203Z,98355.16
2019-03-16T15:58:10.931Z,98341.33
2019-03-16T16:00:40.244Z,98336.64
2019-03-16T16:03:09.783Z,98333.52
2019-03-16T16:05:41.852Z,98328.95
2019-03-16T16:08:10.867Z,98315.60
2019-03-16T16:10:43.809Z,98336.64
2019-03-16T16:13:16.320Z,98319.21
2019-03-16T16:15:45.506Z,98315.16
2019-03-16T16:18:15.506Z,98303.10
2019-03-16T16:20:44.691Z,98302.73
2019-03-16T16:23:14.564Z,98306.95
2019-03-16T16:25:44.499Z,98303.77
2019-03-16T16:28:15.747Z,98302.17
2019-03-16T16:30:45.628Z,98302.92
2019-03-16T16:33:16.863Z,98300.37
2019-03-16T16:35:47.204Z,98309.75
2019-03-16T16:38:16.664Z,98297.96
2019-03-16T16:40:47.174Z,98309.63
2019-03-16T16:43:16.372Z,98293.16
2019-03-16T16:45:50.400Z,98296.41
2019-03-16T16:48:19.571Z,98294.11
2019-03-16T16:50:50.606Z,98291.80
2019-03-16T16:53:19.800Z,98288.91
2019-03-16T16:55:50.287Z,98298.66
2019-03-16T16:58:19.536Z,98283.75
2019-03-16T17:00:56.250Z,98274.48
2019-03-16T17:03:25.503Z,98316.45
2019-03-16T17:05:55.060Z,98287.84
2019-03-16T17:08:24.403Z,98271.60
2019-03-16T17:10:56.654Z,98270.05
2019-03-16T17:13:25.840Z,98268.80
2019-03-16T17:15:55.060Z,98267.48
2019-03-16T17:18:25.772Z,98269.65
2019-03-16T17:20:55.155Z,98264.24
2019-03-16T17:23:25.265Z,98266.28
2019-03-16T17:25:55.255Z,98266.52
2019-03-16T17:28:24.455Z,98267.00
2019-03-16T17:30:55.884Z,98262.32
2019-03-16T17:33:26.638Z,98270.25
2019-03-16T17:35:56.295Z,98268.69
2019-03-16T17:38:25.824Z,98258.68
2019-03-16T17:40:55.820Z,98254.11
2019-03-16T17:43:25.258Z,98264.33
2019-03-16T17:46:02.037Z,98258.08
2019-03-16T17:48:32.059Z,98260.48
2019-03-16T17:51:02.189Z,98257.48
2019-03-16T17:53:35.606Z,98266.34
2019-03-16T17:56:04.798Z,98252.88
2019-03-16T17:58:34.231Z,98249.39
2019-03-16T18:01:03.709Z,98251.19
2019-03-16T18:03:32.882Z,98249.27
2019-03-16T18:06:02.919Z,98252.39
2019-03-16T18:08:32.124Z,98252.43
2019-03-16T18:11:01.422Z,98243.74
2019-03-16T18:13:30.552Z,98243.89
2019-03-16T18:16:00.087Z,98243.98
2019-03-16T18:18:30.897Z,98251.07
2019-03-16T18:21:00.575Z,98234.45
2019-03-16T18:23:30.794Z,98232.97
2019-03-16T18:26:01.483Z,98238.06
2019-03-16T18:28:32.197Z,98240.58
2019-03-16T18:31:01.746Z,98230.73
2019-03-16T18:33:33.742Z,98226.01
2019-03-16T18:36:04.880Z,98225.41
2019-03-16T18:38:34.682Z,98230.33
2019-03-16T18:41:04.096Z,98229.84
2019-03-16T18:43:33.922Z,98238.42
2019-03-16T18:46:03.695Z,98222.47
2019-03-16T18:48:32.956Z,98218.80
2019-03-16T18:51:04.677Z,98221.80
2019-03-16T18:53:36.123Z,98216.07
2019-03-16T18:56:07.592Z,98218.72
2019-03-16T18:58:38.544Z,98221.96
2019-03-16T19:01:07.995Z,98215.44
2019-03-16T19:03:38.217Z,98204.86
2019-03-16T19:06:07.806Z,98206.91
2019-03-16T19:08:37.282Z,98201.53
2019-03-16T19:11:06.677Z,98200.63
2019-03-16T19:13:36.618Z,98198.10
2019-03-16T19:16:06.224Z,98192.58
2019-03-16T19:18:35.736Z,98187.20
2019-03-16T19:21:05.300Z,98185.37
2019-03-16T19:23:34.657Z,98186.13
2019-03-16T19:26:04.514Z,98189.48
2019-03-16T19:28:34.133Z,98186.84
2019-03-16T19:31:03.290Z,98191.13
2019-03-16T19:33:34.787Z,98178.91
2019-03-16T19:36:03.986Z,98179.96
2019-03-16T19:38:33.211Z,98174.35
2019-03-16T19:41:02.784Z,98178.70
2019-03-16T19:43:32.026Z,98169.81
2019-03-16T19:46:01.385Z,98164.86
2019-03-16T19:48:30.727Z,98167.27
2019-03-16T19:50:59.919Z,98169.39
2019-03-16T19:53:30.042Z,98163.78
2019-03-16T19:56:00.025Z,98156.91
2019-03-16T19:58:30.646Z,98152.12
2019-03-16T20:00:59.899Z,98152.25
2019-03-16T20:03:29.029Z,98152.25
2019-03-16T20:05:58.207Z,98150.57
2019-03-16T20:08:27.374Z,98156.15
2019-03-16T20:11:06.498Z,98157.83
2019-03-16T20:13:32.685Z,98160.75
2019-03-16T20:16:03.395Z,98157.98
2019-03-16T20:18:32.853Z,98155.46
2019-03-16T20:21:02.591Z,98143.78
2019-03-16T20:23:31.758Z,98151.70
2019-03-16T20:26:02.399Z,98152.82
2019-03-16T20:28:33.852Z,98144.62
2019-03-16T20:31:03.412Z,98138.28
2019-03-16T20:33:33.343Z,98129.61
2019-03-16T20:36:03.045Z,98126.75
2019-03-16T20:38:32.472Z,98127.09
2019-03-16T20:41:02.424Z,98125.77
2019-03-16T20:43:31.611Z,98125.92
2019-03-16T20:46:01.725Z,98125.28
2019-03-16T20:48:31.941Z,98125.61
2019-03-16T20:51:01.393Z,98132.58
2019-03-16T20:53:30.590Z,98112.64
2019-03-16T20:56:02.868Z,98106.10
2019-03-16T20:58:33.143Z,98111.00
2019-03-16T21:01:02.589Z,98100.36
2019-03-16T21:03:31.929Z,98103.97
2019-03-16T21:06:01.684Z,98101.92
2019-03-16T21:08:31.725Z,98098.53
2019-03-16T21:11:01.155Z,98094.56
2019-03-16T21:13:31.148Z,98089.28
2019-03-16T21:16:02.059Z,98084.72
2019-03-16T21:18:32.441Z,98073.00
2019-03-16T21:21:01.951Z,98075.00
2019-03-16T21:23:31.142Z,98073.71
2019-03-16T21:26:03.641Z,98066.96
2019-03-16T21:28:33.353Z,98071.16
2019-03-16T21:31:05.281Z,98067.92
2019-03-16T21:33:38.562Z,98065.25
2019-03-16T21:36:07.864Z,98067.64
2019-03-16T21:38:37.053Z,98057.95
2019-03-16T21:41:07.871Z,98051.20
2019-03-16T21:43:39.386Z,98058.97
2019-03-16T21:46:08.569Z,98058.94
2019-03-16T21:48:38.113Z,98049.23
2019-03-16T21:51:07.463Z,98056.95
2019-03-16T21:56:41.182Z,98057.61
2019-03-16T21:59:14.618Z,98057.63
2019-03-16T22:01:45.487Z,98043.83
2019-03-16T22:04:15.608Z,98043.11
2019-03-16T22:06:46.667Z,98039.79
2019-03-16T22:09:16.159Z,98027.22
2019-03-16T22:11:45.738Z,98026.33
2019-03-16T22:14:17.550Z,98026.52
2019-03-16T22:16:46.767Z,98024.57
2019-03-16T22:19:15.923Z,98018.11
2019-03-16T22:21:45.095Z,98017.16
2019-03-16T22:24:15.424Z,98014.77
2019-03-16T22:26:44.886Z,98017.70
2019-03-16T22:29:14.049Z,98016.66
2019-03-16T22:31:46.067Z,98012.34
2019-03-16T22:34:15.254Z,98005.95
2019-03-16T22:36:44.807Z,98007.98
2019-03-16T22:39:15.357Z,98001.52
2019-03-16T22:41:46.849Z,98006.28
2019-03-16T22:44:16.581Z,97998.86
2019-03-16T22:46:46.270Z,97994.06
2019-03-16T22:49:15.789Z,97999.92
2019-03-16T22:51:45.974Z,97996.02
2019-03-16T22:54:15.746Z,97987.59
2019-03-16T22:56:45.169Z,97980.39
2019-03-16T22:59:14.641Z,97986.69
2019-03-16T23:01:45.924Z,97987.95
2019-03-16T23:04:18.479Z,97980.39
2019-03-16T23:06:48.271Z,97978.17
2019-03-16T23:09:17.667Z,97977.78
2019-03-16T23:11:48.619Z,97981.03
2019-03-16T23:14:18.179Z,97973.86
2019-03-16T23:16:47.562Z,97977.44
2019-03-16T23:19:16.998Z,97973.77
2019-03-16T23:21:49.523Z,97978.09
2019-03-16T23:24:18.774Z,97980.66
2019-03-16T23:26:50.512Z,97977.16
2019-03-16T23:29:20.006Z,97978.36
2019-03-16T23:31:50.058Z,97976.61
2019-03-16T23:34:21.200Z,97971.66
2019-03-16T23:36:50.578Z,97974.52
2019-03-16T23:39:21.430Z,97970.87
2019-03-16T23:41:50.603Z,97969.98
2019-03-16T23:44:20.180Z,97962.50
2019-03-16T23:46:49.889Z,97957.20
2019-03-16T23:49:19.344Z,97953.05
2019-03-16T23:51:48.786Z,97945.88
2019-03-16T23:54:18.031Z,97938.59
2019-03-16T23:56:47.509Z,97947.86
2019-03-16T23:59:17.475Z,97941.97
